Time;durP1;ratioP1;P1;durP2;ratioP2;P2;SDS_P1;SDS_P2;PMS_P1;PMS_P2;Temp;Humidity;BMP_temperature;BMP_pressure;BME280_temperature;BME280_humidity;BME280_pressure;Samples;Min_cycle;Max_cycle;Signal;HPM_P1;HPM_P2
2022/02/13 00:02:13;;;;;;;;;;;0.70;84.10;;;;;;4934342;29;19915;-85
2022/02/13 00:04:38;;;;;;;;;;;0.70;84.10;;;;;;4934411;29;19922;-84
2022/02/13 00:07:04;;;;;;;;;;;0.80;83.80;;;;;;4927165;29;19910;-84
2022/02/13 00:09:31;;;;;;;;;;;0.80;83.80;;;;;;4939991;29;19911;-84
2022/02/13 00:11:57;;;;;;;;;;;0.80;83.20;;;;;;4932794;29;19907;-86
2022/02/13 00:14:22;;;;;;;;;;;0.80;83.40;;;;;;4946230;29;19922;-84
2022/02/13 00:16:48;;;;;;;;;;;0.70;83.50;;;;;;4940840;29;19918;-84
2022/02/13 00:19:13;;;;;;;;;;;0.70;83.70;;;;;;4940619;29;19949;-84
2022/02/13 00:21:39;;;;;;;;;;;0.60;84.10;;;;;;4945607;29;19917;-85
2022/02/13 00:24:04;;;;;;;;;;;0.70;84.00;;;;;;4940468;29;20488;-84
2022/02/13 00:26:30;;;;;;;;;;;0.70;83.70;;;;;;4935461;29;19915;-84
2022/02/13 00:28:55;;;;;;;;;;;0.60;84.10;;;;;;4927468;29;19918;-84
2022/02/13 00:31:21;;;;;;;;;;;0.70;83.90;;;;;;4930547;29;19927;-85
2022/02/13 00:33:46;;;;;;;;;;;0.90;83.40;;;;;;4935190;29;19906;-84
2022/02/13 00:36:12;;;;;;;;;;;0.80;83.30;;;;;;4925208;29;19917;-85
2022/02/13 00:38:37;;;;;;;;;;;0.80;83.40;;;;;;4935921;29;19966;-85
2022/02/13 00:41:02;;;;;;;;;;;0.90;83.30;;;;;;4936886;29;20271;-85
2022/02/13 00:43:28;;;;;;;;;;;0.90;83.40;;;;;;4933862;29;19911;-85
2022/02/13 00:45:53;;;;;;;;;;;0.80;83.10;;;;;;4925429;29;19922;-85
2022/02/13 00:48:19;;;;;;;;;;;0.90;83.30;;;;;;4937162;29;20359;-84
2022/02/13 00:50:45;;;;;;;;;;;0.80;83.20;;;;;;4929390;29;20391;-85
2022/02/13 00:53:11;;;;;;;;;;;0.80;83.50;;;;;;4917717;29;19922;-85
2022/02/13 00:55:36;;;;;;;;;;;0.80;83.00;;;;;;4949547;29;19918;-85
2022/02/13 00:58:02;;;;;;;;;;;0.70;83.60;;;;;;4935358;29;19911;-85
2022/02/13 01:00:27;;;;;;;;;;;0.60;83.90;;;;;;4949132;28;19911;-85
2022/02/13 01:02:53;;;;;;;;;;;0.70;84.10;;;;;;4934760;29;19914;-84
2022/02/13 01:05:18;;;;;;;;;;;0.80;83.50;;;;;;4934333;29;20335;-84
2022/02/13 01:07:44;;;;;;;;;;;0.80;83.40;;;;;;4926979;29;20426;-85
2022/02/13 01:10:09;;;;;;;;;;;0.80;83.30;;;;;;4931187;29;19945;-85
2022/02/13 01:12:35;;;;;;;;;;;0.80;83.70;;;;;;4938726;28;19982;-84
2022/02/13 01:15:00;;;;;;;;;;;0.70;83.40;;;;;;4932404;29;19918;-85
2022/02/13 01:17:26;;;;;;;;;;;0.70;83.70;;;;;;4929377;29;19993;-85
2022/02/13 01:19:52;;;;;;;;;;;0.70;83.90;;;;;;4937372;29;20015;-85
2022/02/13 01:22:17;;;;;;;;;;;0.50;83.90;;;;;;4936100;29;19914;-85
2022/02/13 01:24:43;;;;;;;;;;;0.60;84.50;;;;;;4940517;29;19946;-85
2022/02/13 01:27:08;;;;;;;;;;;0.70;83.90;;;;;;4931407;29;19969;-84
2022/02/13 01:29:34;;;;;;;;;;;0.70;83.80;;;;;;4940426;29;20295;-85
2022/02/13 01:31:59;;;;;;;;;;;0.70;84.00;;;;;;4932338;29;19962;-85
2022/02/13 01:34:27;;;;;;;;;;;0.60;84.00;;;;;;4931666;29;19911;-85
2022/02/13 01:36:52;;;;;;;;;;;0.60;84.00;;;;;;4930541;29;19915;-85
2022/02/13 01:39:18;;;;;;;;;;;0.70;84.00;;;;;;4942331;29;19907;-85
2022/02/13 01:41:48;;;;;;;;;;;0.60;84.10;;;;;;4956755;28;19915;-85
2022/02/13 01:44:32;;;;;;;;;;;0.60;84.00;;;;;;4919212;29;19926;-85
2022/02/13 01:46:57;;;;;;;;;;;0.60;84.30;;;;;;4931881;29;19966;-84
2022/02/13 01:49:23;;;;;;;;;;;0.60;84.10;;;;;;4933082;29;19914;-84
2022/02/13 01:51:49;;;;;;;;;;;0.60;84.30;;;;;;4930697;29;19907;-84
2022/02/13 01:54:14;;;;;;;;;;;0.70;83.90;;;;;;4937746;29;19917;-86
2022/02/13 01:56:40;;;;;;;;;;;0.50;84.10;;;;;;4941890;29;20413;-85
2022/02/13 01:59:06;;;;;;;;;;;0.60;84.60;;;;;;4942387;29;19932;-85
2022/02/13 02:01:31;;;;;;;;;;;0.50;84.10;;;;;;4932096;28;20359;-85
2022/02/13 02:03:57;;;;;;;;;;;0.60;84.30;;;;;;4925956;29;19911;-85
2022/02/13 02:06:22;;;;;;;;;;;0.50;84.50;;;;;;4935133;29;19918;-84
2022/02/13 02:08:48;;;;;;;;;;;0.50;84.60;;;;;;4926606;29;19915;-85
2022/02/13 02:11:13;;;;;;;;;;;0.60;84.50;;;;;;4933103;29;19919;-85
2022/02/13 02:13:39;;;;;;;;;;;0.50;84.40;;;;;;4947211;28;20360;-85
2022/02/13 02:16:04;;;;;;;;;;;0.40;84.60;;;;;;4929390;29;20401;-85
2022/02/13 02:18:30;;;;;;;;;;;0.30;84.90;;;;;;4938545;29;19911;-85
2022/02/13 02:21:02;;;;;;;;;;;0.30;85.30;;;;;;4936281;29;20001;-85
2022/02/13 02:23:27;;;;;;;;;;;0.30;85.50;;;;;;4924116;29;20284;-84
2022/02/13 02:25:53;;;;;;;;;;;0.30;85.30;;;;;;4928887;29;19919;-84
2022/02/13 02:28:18;;;;;;;;;;;0.30;85.40;;;;;;4929102;29;19978;-85
2022/02/13 02:30:44;;;;;;;;;;;0.30;85.50;;;;;;4933948;29;20342;-84
2022/02/13 02:33:10;;;;;;;;;;;0.30;85.20;;;;;;4921299;29;20297;-85
2022/02/13 02:35:35;;;;;;;;;;;0.30;85.20;;;;;;4921220;29;20307;-84
2022/02/13 02:38:01;;;;;;;;;;;0.40;85.30;;;;;;4925792;29;19961;-85
2022/02/13 02:40:26;;;;;;;;;;;0.30;85.20;;;;;;4930228;29;20402;-84
2022/02/13 02:42:51;;;;;;;;;;;0.30;85.20;;;;;;4930454;29;20440;-85
2022/02/13 02:45:17;;;;;;;;;;;0.20;85.50;;;;;;4934745;29;20302;-84
2022/02/13 02:47:43;;;;;;;;;;;0.20;85.80;;;;;;4939331;29;20319;-86
2022/02/13 02:50:11;;;;;;;;;;;0.40;85.30;;;;;;4925207;29;19906;-85
2022/02/13 02:52:36;;;;;;;;;;;0.20;85.20;;;;;;4930340;29;20001;-85
2022/02/13 02:55:02;;;;;;;;;;;0.20;85.50;;;;;;4921026;29;20462;-85
2022/02/13 02:57:28;;;;;;;;;;;0.10;85.70;;;;;;4932274;29;19914;-85
2022/02/13 03:00:03;;;;;;;;;;;0.10;85.80;;;;;;4933342;29;19954;-85
2022/02/13 03:02:28;;;;;;;;;;;0.10;85.90;;;;;;4932065;29;20306;-85
2022/02/13 03:04:54;;;;;;;;;;;0.10;86.00;;;;;;4933078;29;20009;-85
2022/02/13 03:07:19;;;;;;;;;;;0.20;85.80;;;;;;4923109;29;20279;-85
2022/02/13 03:09:45;;;;;;;;;;;0.30;85.40;;;;;;4934890;29;19907;-86
2022/02/13 03:12:10;;;;;;;;;;;0.20;85.30;;;;;;4938968;29;20387;-86
2022/02/13 03:14:36;;;;;;;;;;;0.30;85.40;;;;;;4930941;29;19946;-86
2022/02/13 03:17:06;;;;;;;;;;;0.20;85.00;;;;;;4940358;29;19937;-85
2022/02/13 03:19:32;;;;;;;;;;;0.20;85.20;;;;;;4930431;29;20654;-85
2022/02/13 03:21:58;;;;;;;;;;;0.30;85.10;;;;;;4928870;29;20009;-85
2022/02/13 03:24:23;;;;;;;;;;;0.30;85.00;;;;;;4924834;29;19998;-85
2022/02/13 03:26:48;;;;;;;;;;;0.20;85.20;;;;;;4936681;29;20001;-85
2022/02/13 03:29:14;;;;;;;;;;;0.20;85.00;;;;;;4933388;29;19962;-85
2022/02/13 03:31:40;;;;;;;;;;;0.30;85.20;;;;;;4923241;29;20375;-85
2022/02/13 03:34:06;;;;;;;;;;;0.20;85.00;;;;;;4944967;28;19938;-85
2022/02/13 03:36:31;;;;;;;;;;;0.20;85.20;;;;;;4929260;29;20394;-85
2022/02/13 03:38:56;;;;;;;;;;;0.20;85.30;;;;;;4929563;29;20435;-86
2022/02/13 03:41:22;;;;;;;;;;;0.30;85.00;;;;;;4923693;29;20385;-86
2022/02/13 03:43:47;;;;;;;;;;;0.20;84.80;;;;;;4927758;29;19911;-86
2022/02/13 03:46:13;;;;;;;;;;;0.20;84.70;;;;;;4923360;29;20020;-86
2022/02/13 03:48:38;;;;;;;;;;;0.20;84.90;;;;;;4923722;29;19907;-86
2022/02/13 03:51:03;;;;;;;;;;;0.30;84.60;;;;;;4933295;29;19950;-86
2022/02/13 03:53:29;;;;;;;;;;;0.30;84.50;;;;;;4931640;29;20009;-86
2022/02/13 03:55:54;;;;;;;;;;;0.20;84.50;;;;;;4933146;29;19926;-85
2022/02/13 03:58:20;;;;;;;;;;;0.20;84.80;;;;;;4932549;29;20350;-86
2022/02/13 04:00:45;;;;;;;;;;;0.20;84.70;;;;;;4924403;29;19915;-86
2022/02/13 04:03:11;;;;;;;;;;;0.20;84.60;;;;;;4939929;29;19910;-86
2022/02/13 04:05:36;;;;;;;;;;;0.20;84.70;;;;;;4921340;29;19934;-86
2022/02/13 04:08:02;;;;;;;;;;;0.20;84.50;;;;;;4933217;29;19906;-86
2022/02/13 04:10:27;;;;;;;;;;;0.20;84.40;;;;;;4936621;29;19913;-86
2022/02/13 04:12:53;;;;;;;;;;;0.10;84.70;;;;;;4933176;29;19906;-86
2022/02/13 04:15:18;;;;;;;;;;;0.10;84.80;;;;;;4931707;29;19910;-86
2022/02/13 04:17:46;;;;;;;;;;;0.10;84.70;;;;;;4928198;29;19945;-86
2022/02/13 04:20:11;;;;;;;;;;;0.10;84.70;;;;;;4931847;29;20057;-86
2022/02/13 04:22:37;;;;;;;;;;;0.10;85.00;;;;;;4930793;29;19924;-86
2022/02/13 04:25:03;;;;;;;;;;;0.00;85.10;;;;;;4932034;29;19945;-86
2022/02/13 04:27:28;;;;;;;;;;;0.00;85.30;;;;;;4936669;28;19911;-86
2022/02/13 04:29:54;;;;;;;;;;;0.00;85.00;;;;;;4936014;29;20367;-86
2022/02/13 04:32:19;;;;;;;;;;;0.00;85.10;;;;;;4935224;29;19917;-86
2022/02/13 04:34:46;;;;;;;;;;;0.00;85.20;;;;;;4948095;29;19907;-86
2022/02/13 04:37:12;;;;;;;;;;;0.00;85.10;;;;;;4947525;29;20004;-86
2022/02/13 04:39:37;;;;;;;;;;;0.00;85.10;;;;;;4932988;29;19910;-86
2022/02/13 04:42:03;;;;;;;;;;;0.10;84.70;;;;;;4937739;29;20606;-86
2022/02/13 04:44:29;;;;;;;;;;;0.00;84.80;;;;;;4932875;29;20356;-86
2022/02/13 04:46:54;;;;;;;;;;;0.00;84.90;;;;;;4932329;29;19907;-86
2022/02/13 04:49:20;;;;;;;;;;;0.00;85.00;;;;;;4936237;29;19914;-86
2022/02/13 04:51:45;;;;;;;;;;;0.00;84.80;;;;;;4931801;29;20366;-86
2022/02/13 04:54:11;;;;;;;;;;;0.00;84.90;;;;;;4932669;29;19918;-86
2022/02/13 04:56:36;;;;;;;;;;;-3276.70;84.90;;;;;;4934304;29;19914;-86
2022/02/13 04:59:01;;;;;;;;;;;0.00;84.90;;;;;;4930480;29;20115;-86
2022/02/13 05:01:27;;;;;;;;;;;0.00;85.00;;;;;;4932541;29;19911;-86
2022/02/13 05:03:53;;;;;;;;;;;-3276.70;85.00;;;;;;4933412;29;19911;-86
2022/02/13 05:06:18;;;;;;;;;;;-3276.70;85.10;;;;;;4934129;29;20428;-86
2022/02/13 05:08:43;;;;;;;;;;;-3276.70;85.20;;;;;;4920751;29;19914;-86
2022/02/13 05:11:09;;;;;;;;;;;-3276.60;85.20;;;;;;4924545;29;19911;-86
2022/02/13 05:13:37;;;;;;;;;;;-3276.60;85.00;;;;;;4934326;29;19911;-86
2022/02/13 05:16:02;;;;;;;;;;;-3276.70;85.20;;;;;;4946997;29;20371;-86
2022/02/13 05:18:28;;;;;;;;;;;-3276.60;84.80;;;;;;4937857;29;20021;-85
2022/02/13 05:20:53;;;;;;;;;;;-3276.60;85.30;;;;;;4934303;29;19911;-86
2022/02/13 05:23:19;;;;;;;;;;;-3276.50;85.30;;;;;;4930623;29;20406;-86
2022/02/13 05:25:44;;;;;;;;;;;-3276.60;85.30;;;;;;4933761;29;19910;-86
2022/02/13 05:28:09;;;;;;;;;;;-3276.50;85.30;;;;;;4928150;29;19921;-86
2022/02/13 05:30:35;;;;;;;;;;;-3276.50;85.30;;;;;;4942248;29;19945;-86
2022/02/13 05:33:00;;;;;;;;;;;-3276.50;85.10;;;;;;4933097;29;20609;-86
2022/02/13 05:35:27;;;;;;;;;;;-3276.50;85.50;;;;;;4934422;29;19942;-86
2022/02/13 05:37:53;;;;;;;;;;;-3276.50;85.40;;;;;;4937307;28;19993;-86
2022/02/13 05:40:18;;;;;;;;;;;-3276.60;85.40;;;;;;4938132;29;19994;-86
2022/02/13 05:42:44;;;;;;;;;;;-3276.50;85.00;;;;;;4929368;29;19911;-86
2022/02/13 05:45:10;;;;;;;;;;;-3276.60;85.00;;;;;;4939651;29;19957;-86
2022/02/13 05:47:35;;;;;;;;;;;-3276.50;85.00;;;;;;4935267;29;19917;-86
2022/02/13 05:50:01;;;;;;;;;;;-3276.50;85.00;;;;;;4931209;29;19911;-86
2022/02/13 05:52:27;;;;;;;;;;;-3276.50;84.90;;;;;;4931324;29;19915;-86
2022/02/13 05:54:52;;;;;;;;;;;-3276.50;85.10;;;;;;4930387;29;19923;-86
2022/02/13 05:57:18;;;;;;;;;;;-3276.50;85.20;;;;;;4931394;29;19911;-85
2022/02/13 05:59:43;;;;;;;;;;;-3276.60;85.20;;;;;;4933859;29;20331;-85
2022/02/13 06:02:09;;;;;;;;;;;-3276.50;84.90;;;;;;4931504;29;19919;-85
2022/02/13 06:04:34;;;;;;;;;;;-3276.50;84.80;;;;;;4933509;29;19965;-85
2022/02/13 06:07:00;;;;;;;;;;;-3276.50;84.70;;;;;;4932151;29;19989;-86
2022/02/13 06:09:25;;;;;;;;;;;-3276.50;84.80;;;;;;4934359;29;19965;-86
2022/02/13 06:11:50;;;;;;;;;;;-3276.50;84.70;;;;;;4930679;29;20363;-85
2022/02/13 06:14:16;;;;;;;;;;;-3276.50;84.70;;;;;;4925026;29;20290;-85
2022/02/13 06:16:41;;;;;;;;;;;-3276.50;84.70;;;;;;4933829;29;19954;-85
2022/02/13 06:19:07;;;;;;;;;;;-3276.50;84.70;;;;;;4934162;29;19910;-85
2022/02/13 06:21:32;;;;;;;;;;;-3276.60;84.50;;;;;;4921979;29;20417;-85
2022/02/13 06:23:58;;;;;;;;;;;-3276.60;84.40;;;;;;4931627;29;19911;-85
2022/02/13 06:26:24;;;;;;;;;;;-3276.70;84.20;;;;;;4928645;29;19922;-85
2022/02/13 06:28:50;;;;;;;;;;;-3276.70;84.00;;;;;;4933175;29;19915;-85
2022/02/13 06:31:15;;;;;;;;;;;-3276.60;84.10;;;;;;4932777;29;19914;-85
2022/02/13 06:33:40;;;;;;;;;;;-3276.70;83.90;;;;;;4924426;29;19922;-85
2022/02/13 06:36:06;;;;;;;;;;;-3276.70;83.60;;;;;;4932568;29;19915;-85
2022/02/13 06:38:32;;;;;;;;;;;-3276.70;83.60;;;;;;4938048;29;19910;-85
2022/02/13 06:40:57;;;;;;;;;;;0.00;83.50;;;;;;4929654;29;19914;-85
2022/02/13 06:43:23;;;;;;;;;;;0.00;83.30;;;;;;4927656;29;19919;-85
2022/02/13 06:45:48;;;;;;;;;;;0.00;83.00;;;;;;4933077;29;20287;-85
2022/02/13 06:48:14;;;;;;;;;;;0.00;83.00;;;;;;4929977;29;20378;-85
2022/02/13 06:50:39;;;;;;;;;;;-3276.70;82.90;;;;;;4948148;28;19910;-84
2022/02/13 06:53:05;;;;;;;;;;;0.00;83.00;;;;;;4926502;29;20323;-85
2022/02/13 06:55:30;;;;;;;;;;;0.00;82.70;;;;;;4920965;29;19927;-85
2022/02/13 06:57:56;;;;;;;;;;;0.00;82.60;;;;;;4930632;29;19918;-86
2022/02/13 07:00:21;;;;;;;;;;;0.10;82.10;;;;;;4928963;29;20005;-85
2022/02/13 07:02:47;;;;;;;;;;;0.10;82.00;;;;;;4929494;29;19962;-85
2022/02/13 07:05:12;;;;;;;;;;;0.00;82.30;;;;;;4929625;29;19946;-85
2022/02/13 07:07:38;;;;;;;;;;;0.10;81.90;;;;;;4929535;29;19917;-86
2022/02/13 07:10:08;;;;;;;;;;;0.10;82.00;;;;;;4934113;29;19915;-86
2022/02/13 07:12:33;;;;;;;;;;;0.10;81.90;;;;;;4928643;29;20665;-85
2022/02/13 07:14:59;;;;;;;;;;;0.10;81.50;;;;;;4928982;29;20009;-85
2022/02/13 07:17:24;;;;;;;;;;;0.10;81.50;;;;;;4933585;29;19914;-85
2022/02/13 07:19:50;;;;;;;;;;;0.20;81.20;;;;;;4932223;29;19986;-85
2022/02/13 07:22:15;;;;;;;;;;;0.20;81.20;;;;;;4927182;29;19966;-85
2022/02/13 07:24:41;;;;;;;;;;;0.30;80.70;;;;;;4932777;29;19958;-85
2022/02/13 07:27:10;;;;;;;;;;;0.40;80.60;;;;;;4935843;29;19914;-85
2022/02/13 07:29:36;;;;;;;;;;;0.40;80.40;;;;;;4939151;29;19907;-85
2022/02/13 07:32:01;;;;;;;;;;;0.40;80.30;;;;;;4925952;29;19918;-85
2022/02/13 07:34:27;;;;;;;;;;;0.50;80.00;;;;;;4937071;29;20294;-85
2022/02/13 07:37:01;;;;;;;;;;;0.60;79.50;;;;;;4935995;28;19910;-85
2022/02/13 07:39:27;;;;;;;;;;;0.60;79.30;;;;;;4928927;29;20271;-84
2022/02/13 07:41:52;;;;;;;;;;;0.70;79.10;;;;;;4919423;29;19935;-85
2022/02/13 07:44:17;;;;;;;;;;;0.70;78.90;;;;;;4945319;28;20343;-85
2022/02/13 07:46:43;;;;;;;;;;;0.80;78.30;;;;;;4936149;29;20352;-85
2022/02/13 07:49:08;;;;;;;;;;;0.90;78.10;;;;;;4928231;29;20342;-85
2022/02/13 07:51:36;;;;;;;;;;;0.90;77.90;;;;;;4929954;29;19907;-84
2022/02/13 07:54:01;;;;;;;;;;;0.90;78.20;;;;;;4946458;28;20287;-85
2022/02/13 07:56:27;;;;;;;;;;;1.00;78.50;;;;;;4934142;29;19911;-86
2022/02/13 07:58:52;;;;;;;;;;;1.10;77.40;;;;;;4939557;29;19929;-86
2022/02/13 08:01:19;;;;;;;;;;;1.20;77.50;;;;;;4932470;29;19910;-86
2022/02/13 08:03:45;;;;;;;;;;;1.30;77.10;;;;;;4935135;29;19911;-86
2022/02/13 08:06:12;;;;;;;;;;;1.40;76.20;;;;;;4932176;29;19941;-86
2022/02/13 08:08:37;;;;;;;;;;;1.40;76.10;;;;;;4927637;29;20355;-86
2022/02/13 08:11:03;;;;;;;;;;;1.30;76.40;;;;;;4922957;29;19915;-86
2022/02/13 08:13:29;;;;;;;;;;;1.30;75.30;;;;;;4933946;29;20499;-86
2022/02/13 08:15:54;;;;;;;;;;;1.40;75.00;;;;;;4927259;29;19925;-86
2022/02/13 08:18:22;;;;;;;;;;;1.50;75.50;;;;;;4930974;29;19914;-86
2022/02/13 08:20:47;;;;;;;;;;;1.60;75.20;;;;;;4944830;28;19974;-85
2022/02/13 08:23:13;;;;;;;;;;;1.60;74.50;;;;;;4921027;29;19915;-85
2022/02/13 08:25:42;;;;;;;;;;;1.60;74.80;;;;;;4934181;29;19914;-85
2022/02/13 08:28:07;;;;;;;;;;;1.60;73.80;;;;;;4925663;29;19997;-85
2022/02/13 08:30:33;;;;;;;;;;;1.60;73.90;;;;;;4923947;29;20006;-85
2022/02/13 08:32:58;;;;;;;;;;;1.70;74.00;;;;;;4935737;29;19933;-85
2022/02/13 08:35:25;;;;;;;;;;;1.80;74.20;;;;;;4934423;29;19934;-85
2022/02/13 08:37:50;;;;;;;;;;;1.90;72.90;;;;;;4930087;29;19923;-85
2022/02/13 08:40:16;;;;;;;;;;;2.10;73.10;;;;;;4932983;29;20423;-85
2022/02/13 08:42:41;;;;;;;;;;;2.20;72.60;;;;;;4928875;29;20371;-85
2022/02/13 08:45:07;;;;;;;;;;;2.40;71.30;;;;;;4933466;29;20302;-85
2022/02/13 08:47:32;;;;;;;;;;;2.60;71.40;;;;;;4922159;29;20020;-84
2022/02/13 08:49:58;;;;;;;;;;;2.80;70.60;;;;;;4927768;29;19958;-85
2022/02/13 08:52:23;;;;;;;;;;;2.90;70.80;;;;;;4926933;29;20289;-85
2022/02/13 08:54:49;;;;;;;;;;;3.00;69.10;;;;;;4930175;29;19935;-86
2022/02/13 08:57:14;;;;;;;;;;;3.00;69.20;;;;;;4937729;29;20302;-86
2022/02/13 08:59:40;;;;;;;;;;;3.00;68.70;;;;;;4929379;29;20423;-86
2022/02/13 09:02:05;;;;;;;;;;;3.00;68.30;;;;;;4940368;29;19934;-86
2022/02/13 09:04:31;;;;;;;;;;;3.00;68.30;;;;;;4935338;29;19915;-86
2022/02/13 09:07:02;;;;;;;;;;;3.10;68.50;;;;;;4940956;29;20358;-86
2022/02/13 09:09:28;;;;;;;;;;;3.20;67.50;;;;;;4930264;29;19911;-85
2022/02/13 09:11:54;;;;;;;;;;;3.10;66.30;;;;;;4923421;29;20018;-85
2022/02/13 09:14:22;;;;;;;;;;;3.20;66.70;;;;;;4936210;28;20427;-86
2022/02/13 09:16:47;;;;;;;;;;;3.30;66.90;;;;;;4941998;29;19963;-86
2022/02/13 09:19:16;;;;;;;;;;;3.40;67.30;;;;;;4933733;29;19918;-84
2022/02/13 09:21:41;;;;;;;;;;;3.60;67.20;;;;;;4934600;29;20017;-84
2022/02/13 09:24:07;;;;;;;;;;;3.70;65.60;;;;;;4933872;29;19993;-84
2022/02/13 09:26:33;;;;;;;;;;;3.80;65.40;;;;;;4935620;29;20014;-84
2022/02/13 09:29:00;;;;;;;;;;;3.80;65.10;;;;;;4930148;29;19911;-84
2022/02/13 09:31:25;;;;;;;;;;;3.90;64.80;;;;;;4940186;29;19981;-85
2022/02/13 09:33:51;;;;;;;;;;;4.00;64.20;;;;;;4938548;29;19915;-85
2022/02/13 09:36:17;;;;;;;;;;;4.00;63.20;;;;;;4944705;28;19922;-85
2022/02/13 09:38:42;;;;;;;;;;;4.10;63.20;;;;;;4931483;29;19918;-85
2022/02/13 09:41:07;;;;;;;;;;;4.30;64.70;;;;;;4925990;29;19911;-84
2022/02/13 09:43:33;;;;;;;;;;;4.50;64.30;;;;;;4924137;29;19954;-84
2022/02/13 09:45:59;;;;;;;;;;;4.40;62.10;;;;;;4928646;29;20395;-85
2022/02/13 09:48:28;;;;;;;;;;;4.50;62.60;;;;;;4924497;29;19906;-85
2022/02/13 09:50:55;;;;;;;;;;;4.60;63.00;;;;;;4928528;29;19954;-84
2022/02/13 09:53:21;;;;;;;;;;;4.70;62.30;;;;;;4933618;29;19958;-85
2022/02/13 09:55:47;;;;;;;;;;;4.50;61.80;;;;;;4932176;29;20406;-85
2022/02/13 09:58:12;;;;;;;;;;;4.40;62.50;;;;;;4930957;29;19966;-85
2022/02/13 10:00:47;;;;;;;;;;;4.50;63.50;;;;;;4928476;29;20363;-85
2022/02/13 10:03:19;;;;;;;;;;;4.40;62.90;;;;;;4933907;29;19965;-85
2022/02/13 10:05:47;;;;;;;;;;;4.50;63.10;;;;;;4934743;29;20116;-85
2022/02/13 10:08:32;;;;;;;;;;;4.40;63.20;;;;;;4930388;29;20005;-86
2022/02/13 10:11:10;;;;;;;;;;;4.60;64.70;;;;;;4933147;29;19911;-85
2022/02/13 10:13:55;;;;;;;;;;;4.40;63.10;;;;;;4933083;29;19913;-85
2022/02/13 10:16:21;;;;;;;;;;;4.60;63.90;;;;;;4920933;29;19964;-85
2022/02/13 10:18:48;;;;;;;;;;;4.70;64.10;;;;;;4937724;29;19942;-85
2022/02/13 10:21:32;;;;;;;;;;;4.60;63.60;;;;;;4942188;29;19914;-86
2022/02/13 10:24:36;;;;;;;;;;;4.50;62.40;;;;;;4940164;29;20006;-85
2022/02/13 10:27:08;;;;;;;;;;;4.60;62.80;;;;;;4881426;29;20339;-86
2022/02/13 10:29:35;;;;;;;;;;;4.70;62.60;;;;;;4874323;29;19919;-85
2022/02/13 10:32:11;;;;;;;;;;;4.80;63.60;;;;;;4899443;29;19911;-85
2022/02/13 10:34:37;;;;;;;;;;;4.80;62.60;;;;;;4933543;29;19906;-85
2022/02/13 10:37:02;;;;;;;;;;;4.80;62.40;;;;;;4960567;28;19911;-85
2022/02/13 10:39:28;;;;;;;;;;;5.10;62.60;;;;;;4934558;29;19914;-87
2022/02/13 10:41:54;;;;;;;;;;;5.10;62.00;;;;;;4934431;29;19921;-86
2022/02/13 10:44:26;;;;;;;;;;;5.20;61.20;;;;;;4946179;29;20367;-87
2022/02/13 10:46:52;;;;;;;;;;;5.30;61.40;;;;;;4922990;29;19913;-87
2022/02/13 10:49:17;;;;;;;;;;;5.30;61.60;;;;;;4929841;29;20009;-86
2022/02/13 10:51:43;;;;;;;;;;;5.40;62.80;;;;;;4922707;29;19914;-87
2022/02/13 10:54:09;;;;;;;;;;;5.40;62.00;;;;;;4931715;29;20372;-87
2022/02/13 10:56:37;;;;;;;;;;;5.60;62.40;;;;;;4939496;29;19958;-86
2022/02/13 10:59:04;;;;;;;;;;;5.60;61.00;;;;;;4930122;29;20333;-87
2022/02/13 11:01:29;;;;;;;;;;;5.60;61.30;;;;;;4935907;29;19906;-87
2022/02/13 11:03:57;;;;;;;;;;;5.50;60.80;;;;;;4932773;29;19973;-87
2022/02/13 11:06:25;;;;;;;;;;;5.50;61.00;;;;;;4931710;29;19953;-87
2022/02/13 11:08:56;;;;;;;;;;;5.50;60.60;;;;;;4931227;29;19915;-86
2022/02/13 11:11:21;;;;;;;;;;;5.80;61.60;;;;;;4936148;28;19907;-86
2022/02/13 11:13:47;;;;;;;;;;;5.80;61.50;;;;;;4929211;29;19998;-86
2022/02/13 11:16:50;;;;;;;;;;;6.00;60.50;;;;;;4930033;29;19919;-86
2022/02/13 11:19:16;;;;;;;;;;;6.00;60.00;;;;;;4881428;29;20404;-87
2022/02/13 11:21:43;;;;;;;;;;;6.10;59.80;;;;;;4914407;29;19970;-86
2022/02/13 11:24:22;;;;;;;;;;;6.10;59.20;;;;;;4941290;29;20332;-86
2022/02/13 11:26:48;;;;;;;;;;;6.20;59.50;;;;;;4925323;29;19911;-87
2022/02/13 11:29:15;;;;;;;;;;;6.20;59.30;;;;;;4931649;29;19917;-87
2022/02/13 11:31:50;;;;;;;;;;;6.30;58.60;;;;;;4931421;29;20036;-85
2022/02/13 11:34:22;;;;;;;;;;;6.50;58.30;;;;;;4922965;29;19950;-85
2022/02/13 11:36:58;;;;;;;;;;;6.80;58.60;;;;;;4945101;28;19950;-84
2022/02/13 11:39:32;;;;;;;;;;;6.90;58.90;;;;;;4930461;29;19915;-85
2022/02/13 11:41:59;;;;;;;;;;;7.10;58.10;;;;;;4931225;29;19915;-84
2022/02/13 11:44:32;;;;;;;;;;;7.10;57.60;;;;;;4933823;29;19918;-85
2022/02/13 11:46:58;;;;;;;;;;;7.00;57.60;;;;;;4934933;29;19926;-85
2022/02/13 11:49:24;;;;;;;;;;;7.10;57.60;;;;;;4935790;29;19967;-87
2022/02/13 11:51:53;;;;;;;;;;;6.80;57.40;;;;;;4946465;28;19914;-84
2022/02/13 11:54:37;;;;;;;;;;;7.00;57.50;;;;;;4934696;29;21033;-84
2022/02/13 11:57:15;;;;;;;;;;;7.00;57.90;;;;;;4925742;29;19922;-84
2022/02/13 11:59:55;;;;;;;;;;;7.10;56.80;;;;;;4934454;29;20005;-83
2022/02/13 12:02:30;;;;;;;;;;;7.20;57.20;;;;;;4934750;29;19961;-83
2022/02/13 12:05:07;;;;;;;;;;;7.20;55.90;;;;;;4942729;29;19914;-84
2022/02/13 12:07:34;;;;;;;;;;;7.20;56.80;;;;;;4929567;29;19918;-83
2022/02/13 12:09:59;;;;;;;;;;;7.20;56.00;;;;;;4941009;28;19907;-84
2022/02/13 12:12:26;;;;;;;;;;;7.40;56.40;;;;;;4927513;29;20335;-84
2022/02/13 12:14:51;;;;;;;;;;;7.50;54.50;;;;;;4940773;29;19978;-84
2022/02/13 12:17:24;;;;;;;;;;;7.50;56.00;;;;;;4928100;29;20375;-84
2022/02/13 12:19:58;;;;;;;;;;;7.70;54.70;;;;;;4926979;29;19911;-83
2022/02/13 12:22:24;;;;;;;;;;;7.80;55.30;;;;;;4930067;29;19915;-83
2022/02/13 12:24:51;;;;;;;;;;;8.20;54.90;;;;;;4933769;29;19918;-83
2022/02/13 12:27:17;;;;;;;;;;;8.30;54.20;;;;;;4933103;28;19917;-84
2022/02/13 12:29:49;;;;;;;;;;;8.40;54.00;;;;;;4929065;29;20354;-83
2022/02/13 12:32:15;;;;;;;;;;;8.90;53.70;;;;;;4930607;29;20430;-84
2022/02/13 12:35:00;;;;;;;;;;;8.70;52.50;;;;;;4938731;28;19967;-84
2022/02/13 12:37:33;;;;;;;;;;;8.60;53.10;;;;;;4929810;29;19929;-83
2022/02/13 12:39:59;;;;;;;;;;;8.20;52.20;;;;;;4935485;29;19918;-83
2022/02/13 12:42:28;;;;;;;;;;;8.10;53.20;;;;;;4939775;28;19910;-86
2022/02/13 12:44:55;;;;;;;;;;;8.30;55.40;;;;;;4925373;29;19914;-82
2022/02/13 12:47:25;;;;;;;;;;;8.00;53.30;;;;;;4927942;29;20364;-82
2022/02/13 12:49:50;;;;;;;;;;;8.30;55.10;;;;;;4931181;29;20451;-82
2022/02/13 12:52:16;;;;;;;;;;;8.10;53.50;;;;;;4936633;29;20054;-82
2022/02/13 12:54:42;;;;;;;;;;;8.50;54.00;;;;;;4935424;29;20035;-82
2022/02/13 12:57:18;;;;;;;;;;;8.40;53.20;;;;;;4938891;29;20381;-82
2022/02/13 12:59:43;;;;;;;;;;;8.50;52.40;;;;;;4926266;29;19915;-83
2022/02/13 13:02:19;;;;;;;;;;;8.50;53.90;;;;;;4924874;29;20378;-83
2022/02/13 13:04:44;;;;;;;;;;;8.80;52.90;;;;;;4934603;29;19926;-82
2022/02/13 13:07:24;;;;;;;;;;;8.40;53.10;;;;;;4929038;29;20370;-83
2022/02/13 13:09:50;;;;;;;;;;;8.60;53.10;;;;;;4938669;29;19910;-83
2022/02/13 13:12:19;;;;;;;;;;;8.60;53.10;;;;;;4935599;29;20107;-82
2022/02/13 13:15:01;;;;;;;;;;;8.40;53.50;;;;;;4950812;28;20352;-82
2022/02/13 13:17:37;;;;;;;;;;;8.70;53.40;;;;;;4921857;29;19954;-82
2022/02/13 13:20:18;;;;;;;;;;;8.90;53.50;;;;;;4927181;29;19914;-82
2022/02/13 13:22:43;;;;;;;;;;;9.10;53.20;;;;;;4932261;29;19965;-82
2022/02/13 13:25:09;;;;;;;;;;;9.10;53.00;;;;;;4933987;29;19918;-82
2022/02/13 13:27:34;;;;;;;;;;;9.20;52.40;;;;;;4934456;29;20070;-82
2022/02/13 13:30:00;;;;;;;;;;;9.20;51.60;;;;;;4926643;29;20311;-82
2022/02/13 13:32:25;;;;;;;;;;;9.30;52.40;;;;;;4935179;29;19911;-82
2022/02/13 13:34:52;;;;;;;;;;;9.00;51.80;;;;;;4946439;28;19911;-82
2022/02/13 13:37:27;;;;;;;;;;;9.00;52.80;;;;;;4928175;29;19919;-82
2022/02/13 13:40:06;;;;;;;;;;;9.00;52.40;;;;;;4937468;28;19911;-82
2022/02/13 13:42:33;;;;;;;;;;;8.90;52.30;;;;;;4927310;29;19925;-82
2022/02/13 13:45:03;;;;;;;;;;;8.60;51.40;;;;;;4927791;29;19914;-83
2022/02/13 13:47:29;;;;;;;;;;;8.70;52.70;;;;;;4922389;29;19918;-83
2022/02/13 13:49:54;;;;;;;;;;;9.00;52.70;;;;;;4937938;29;20388;-83
2022/02/13 13:52:19;;;;;;;;;;;9.10;52.00;;;;;;4929816;29;20495;-84
2022/02/13 13:54:45;;;;;;;;;;;9.50;51.80;;;;;;4934300;29;20013;-83
2022/02/13 13:57:12;;;;;;;;;;;9.50;51.40;;;;;;4931339;29;19926;-83
2022/02/13 13:59:38;;;;;;;;;;;9.40;51.90;;;;;;4926095;29;19958;-83
2022/02/13 14:02:14;;;;;;;;;;;9.10;49.80;;;;;;4936959;29;20368;-83
2022/02/13 14:04:39;;;;;;;;;;;9.00;50.70;;;;;;4938135;29;19959;-83
2022/02/13 14:07:04;;;;;;;;;;;8.90;50.90;;;;;;4949197;28;20367;-83
2022/02/13 14:09:30;;;;;;;;;;;8.50;51.10;;;;;;4949711;29;19938;-83
2022/02/13 14:11:55;;;;;;;;;;;8.50;51.70;;;;;;4934683;29;19911;-83
2022/02/13 14:14:21;;;;;;;;;;;8.70;52.90;;;;;;4931385;29;19910;-83
2022/02/13 14:16:46;;;;;;;;;;;8.70;52.40;;;;;;4927246;29;19962;-83
2022/02/13 14:19:11;;;;;;;;;;;8.80;53.20;;;;;;4936129;29;20311;-83
2022/02/13 14:21:37;;;;;;;;;;;8.60;53.60;;;;;;4941135;29;19910;-83
2022/02/13 14:24:02;;;;;;;;;;;8.40;52.70;;;;;;4935934;29;19961;-83